Stations météo

réclame
Mon MeteoGroup
Carlsfeld, Allemagne (10574): Température de l'air & dewpoint: 09.09.2019 12:00:00 - 15.09.2019 12:00:00 (CEST)Carlsfeld, Allemagne (10574): Température de l'air 5cm & Température de l'air -5cm: 09.09.2019 12:00:00 - 15.09.2019 12:00:00 (CEST)Carlsfeld, Allemagne (10574): Température de l'air -20cm & Température de l'air -100cm: 09.09.2019 12:00:00 - 15.09.2019 12:00:00 (CEST)Carlsfeld, Allemagne (10574): Vitesse du vent & gusts: 09.09.2019 12:00:00 - 15.09.2019 12:00:00 (CEST)Carlsfeld, Allemagne (10574): Direction du vent: 09.09.2019 12:00:00 - 15.09.2019 12:00:00 (CEST)Carlsfeld, Allemagne (10574): visibility: 09.09.2019 12:00:00 - 15.09.2019 12:00:00 (CEST)Carlsfeld, Allemagne (10574): Ensoleillement: 09.09.2019 12:00:00 - 15.09.2019 12:00:00 (CEST)Carlsfeld, Allemagne (10574): Quantités de précipitations: 09.09.2019 12:00:00 - 15.09.2019 12:00:00 (CEST)
Date & Time tt [°C] td [°C] tt 5cm [°C] tt -5cm [°C] tt -20cm [°C] tt -100cm [°C] ff [km/h] ff [knt] fx [km/h] fx [knt] dd vv [km] sd [min] rr [mm]
15.09.2019 12:00:00 17,4 10,8 21,2 17,3 12,3 13,5 10 5 29 15 W 26 60 0,0
15.09.2019 11:00:00 16,5 11,7 20,1 15,0 12,0 13,5 11 6 27 15 W 22 60 0,0
15.09.2019 10:00:00 14,3 11,9 17,2 12,5 11,8 13,4 11 6 24 13 WSW 9 26 0,0
15.09.2019 09:00:00 12,3 11,1 12,8 10,6 11,8 13,4 10 6 26 14 WSW 7 12 0,0
15.09.2019 08:00:00 11,3 10,2 10,9 9,5 11,9 13,4 11 6 25 13 WSW 7 0 0,0
15.09.2019 07:00:00 10,5 9,5 9,2 8,8 12,1 13,4 9 5 24 13 SW 9 0 0,0
15.09.2019 06:00:00 9,7 8,7 8,2 8,3 12,4 13,4 11 6 22 12 SW 16 0 0,0
15.09.2019 05:00:00 7,4 6,3 4,0 8,6 12,6 13,4 9 5 16 9 SW 14 0 0,0
15.09.2019 04:00:00 8,6 7,2 6,1 9,0 12,9 13,4 10 6 16 9 SW 24 0 0,0
15.09.2019 03:00:00 8,9 7,1 7,2 9,3 13,2 13,4 9 5 16 9 SW 31 0 0,0
15.09.2019 02:00:00 9,1 7,1 7,0 9,7 13,5 13,4 9 5 17 9 SW 34 0 0,0
15.09.2019 01:00:00 9,2 6,9 6,9 10,2 13,8 13,4 10 5 17 9 WSW 35 0 0,0
15.09.2019 00:00:00 10,0 6,9 8,2 10,6 14,1 13,4 8 5 19 10 SSW 41 0 0,0
14.09.2019 23:00:00 10,2 7,0 8,9 11,1 14,5 13,4 9 5 18 10 SSW 43 0 0,0
14.09.2019 22:00:00 8,4 7,0 5,5 11,7 14,9 13,4 4 2 6 3 S 29 0 0,0
14.09.2019 21:00:00 8,4 7,0 4,8 12,9 15,2 13,4 4 2 6 3 SSE 16 0 0,0
14.09.2019 20:00:00 9,7 7,6 5,2 14,5 15,3 13,4 2 1 6 3 SE 31 0 0,0
14.09.2019 19:00:00 12,5 8,6 9,1 16,4 15,3 13,4 0 0 6 3 N 49 26 0,0
14.09.2019 18:00:00 13,6 8,2 14,0 17,9 15,1 13,5 3 2 17 9 NE 49 47 0,0
14.09.2019 17:00:00 14,7 8,3 19,1 18,3 14,9 13,5 8 4 16 9 NE 48 34 0,0
14.09.2019 16:00:00 14,4 8,2 16,4 18,7 14,5 13,5 6 3 13 7 ENE 53 25 0,0
14.09.2019 15:00:00 14,0 8,4 15,9 18,9 14,1 13,5 7 4 19 10 NE 48 20 0,0
14.09.2019 14:00:00 14,6 8,2 19,8 18,6 13,6 13,5 3 2 18 10 NE 55 32 0,0
14.09.2019 13:00:00 14,2 8,0 18,2 17,5 13,2 13,5 3 2 15 8 ENE 62 40 0,0
14.09.2019 12:00:00 12,9 7,5 17,0 15,6 12,9 13,5 5 3 12 6 NE 53 14 0,0
14.09.2019 11:00:00 13,0 7,2 15,5 14,6 12,7 13,5 5 3 11 6 ESE 53 14 0,0
14.09.2019 10:00:00 12,5 7,0 15,1 13,3 12,7 13,5 7 4 13 7 ESE 44 56 0,0
14.09.2019 09:00:00 10,2 8,0 11,0 11,3 12,8 13,4 4 2 7 4 ESE 33 32 0,0
14.09.2019 08:00:00 9,0 8,0 9,7 10,5 13,0 13,4 3 2 6 4 SE 12 28 0,0
14.09.2019 07:00:00 8,7 7,9 6,3 11,0 13,1 13,4 4 2 8 5 SE 1,4 0 0,0
14.09.2019 06:00:00 9,1 8,5 9,0 11,2 13,3 13,4 4 2 10 5 E 8 0 0,0
14.09.2019 05:00:00 9,4 8,7 8,9 11,5 13,4 13,5 6 4 13 7 ENE 9 0 0,0
14.09.2019 04:00:00 10,0 9,2 9,5 12,0 13,6 13,5 8 4 16 9 E 7 0 0,0
14.09.2019 03:00:00 10,6 9,8 10,2 12,3 13,7 13,5 6 3 22 12 NE 8 0 0,0
14.09.2019 02:00:00 11,2 10,2 10,8 12,7 13,8 13,5 8 5 21 11 NE 7 0 0,0
14.09.2019 01:00:00 11,9 10,6 11,6 12,9 13,9 13,5 6 3 18 10 NE 8 0 0,0
14.09.2019 00:00:00 11,9 10,7 11,3 13,1 14,1 13,5 4 2 14 7 N 12 0 0,0
13.09.2019 23:00:00 12,4 11,0 12,0 13,6 14,2 13,5 5 3 16 9 N 13 0 0,0
13.09.2019 22:00:00 12,7 11,4 12,4 13,9 14,3 13,5 7 4 18 10 N 9 0 0,0
13.09.2019 21:00:00 13,1 11,7 12,7 14,2 14,4 13,5 5 3 18 10 N 14 0 0,1
13.09.2019 20:00:00 13,0 11,4 12,0 14,5 14,4 13,5 3 2 6 4 W 36 0 0,0
13.09.2019 19:00:00 14,3 11,6 11,7 15,6 14,3 13,5 2 1 19 10 NNW 44 10 0,0
13.09.2019 18:00:00 15,5 11,7 15,5 16,5 14,2 13,5 6 3 20 11 NW 44 7 0,0
13.09.2019 17:00:00 15,5 12,5 16,4 16,6 14,0 13,5 5 3 19 10 NW 43 3 0,0
13.09.2019 16:00:00 15,9 12,4 17,0 16,8 13,7 13,5 6 3 20 11 NW 47 1 0,0
13.09.2019 15:00:00 15,9 12,5 16,9 16,6 13,4 13,5 5 3 21 11 WNW 58 0 0,0
13.09.2019 14:00:00 16,2 12,2 19,3 16,4 13,1 13,5 10 6 29 15 WNW 39 7 0,0
13.09.2019 13:00:00 15,3 11,7 16,7 15,0 12,9 13,5 12 6 25 13 W 40 0 0,0
13.09.2019 12:00:00 14,2 11,0 14,6 14,4 12,6 13,5 11 6 29 16 W 59 0 0,0
13.09.2019 11:00:00 14,6 11,2 15,3 14,1 12,4 13,5 10 5 25 14 W 55 0 0,0
13.09.2019 10:00:00 14,1 11,5 14,9 12,9 12,4 13,5 13 7 27 14 W 26 2 0,0
13.09.2019 09:00:00 13,3 11,2 12,8 11,7 12,4 13,5 8 5 21 11 W 20 1 0,0
13.09.2019 08:00:00 12,1 11,0 11,8 10,8 12,5 13,5 4 2 12 6 WNW 13 0 0,0
13.09.2019 07:00:00 11,0 10,3 7,4 10,5 12,6 13,5 2 1 6 3 ESE 0,8 0 0,0
13.09.2019 06:00:00 12,0 11,0 8,7 11,3 12,6 13,5 3 2 18 10 WNW 11 0 0,0
13.09.2019 05:00:00 12,8 11,6 12,0 11,6 12,7 13,5 6 3 16 9 WNW 18 0 0,0
13.09.2019 04:00:00 13,0 11,7 12,4 11,3 12,8 13,5 6 3 19 11 W 28 0 0,0
13.09.2019 03:00:00 12,7 11,6 11,5 11,0 13,0 13,5 4 2 14 7 WNW 33 0 0,0
13.09.2019 02:00:00 12,2 11,1 11,0 10,8 13,2 13,5 6 3 16 8 W 33 0 0,0
13.09.2019 01:00:00 12,3 11,2 11,4 10,9 13,4 13,5 4 2 14 7 WNW 39 0 0,0
13.09.2019 00:00:00 11,7 10,7 9,6 11,2 13,7 13,6 4 2 20 11 W 29 0 0,0
12.09.2019 23:00:00 11,1 10,3 9,0 11,6 14,0 13,6 6 3 14 7 W 40 0 0,0
12.09.2019 22:00:00 10,4 9,5 7,8 12,2 14,2 13,6 5 3 13 7 W 23 0 0,0
12.09.2019 21:00:00 10,7 9,4 7,5 13,3 14,4 13,6 4 2 11 6 WSW 23 0 0,0
12.09.2019 20:00:00 12,4 10,3 10,1 14,6 14,4 13,6 4 2 16 8 WSW 54 0 0,0
12.09.2019 19:00:00 14,5 10,4 13,3 16,1 14,3 13,6 9 5 27 15 W 70 46 0,0
12.09.2019 18:00:00 15,7 10,3 17,2 17,1 14,1 13,6 10 6 25 14 W 46 53 0,0
12.09.2019 17:00:00 15,3 10,0 17,1 17,6 13,8 13,6 13 7 31 17 W 47 48 0,0
12.09.2019 16:00:00 14,8 11,1 17,1 17,5 13,5 13,6 11 6 29 15 W 70 7 0,0
12.09.2019 15:00:00 14,4 11,2 16,7 17,3 13,1 13,6 13 7 27 15 W 36 2 0,0
12.09.2019 14:00:00 15,3 11,0 18,0 17,8 12,5 13,6 10 6 24 13 WSW 59 17 0,0
12.09.2019 13:00:00 14,5 10,7 17,1 17,3 12,0 13,6 11 6 29 16 WSW 50 43 0,0
12.09.2019 12:00:00 13,0 10,0 15,1 14,7 11,6 13,6 14 8 27 15 WSW 25 13 0,1
12.09.2019 11:00:00 11,8 9,8 13,0 13,0 11,4 13,6 16 9 31 17 WSW 12 1 0,0
12.09.2019 10:00:00 10,8 9,5 11,8 11,0 11,4 13,6 13 7 24 13 WSW 17 0 0,1
12.09.2019 09:00:00 10,0 8,8 9,9 10,3 11,4 13,6 12 7 24 13 W 15 0 0,0
12.09.2019 08:00:00 9,9 9,2 9,9 9,9 11,4 13,7 10 6 22 12 WSW 8 0 0,2
12.09.2019 07:00:00 9,6 9,0 9,5 9,6 11,4 13,7 9 5 21 11 W 1,6 0 0,1
12.09.2019 06:00:00 9,4 8,2 9,0 9,3 11,6 13,7 8 4 30 16 W 9 0 0,0
12.09.2019 05:00:00 9,9 7,1 9,4 8,9 11,7 13,7 14 7 34 18 W 27 0 0,0
12.09.2019 04:00:00 10,0 5,9 8,7 8,7 11,9 13,7 12 7 26 14 W 42 0 0,0
12.09.2019 03:00:00 10,4 5,5 9,2 8,6 12,2 13,7 13 7 26 14 W 49 0 0,0
12.09.2019 02:00:00 9,9 5,2 7,7 8,5 12,5 13,7 11 6 23 12 W 50 0 0,0
12.09.2019 01:00:00 8,8 5,0 6,1 8,7 12,9 13,7 10 5 18 10 WSW 50 0 0,0
12.09.2019 00:00:00 6,3 4,7 2,8 9,3 13,3 13,7 5 3 13 7 SW 28 0 0,0
11.09.2019 23:00:00 7,0 4,9 2,4 10,2 13,7 13,7 6 3 12 7 SW 36 0 0,0
11.09.2019 22:00:00 6,9 4,9 3,6 11,1 14,0 13,8 5 3 11 6 SW 36 0 0,0
11.09.2019 21:00:00 7,9 5,3 3,2 12,5 14,3 13,8 4 2 8 5 SW 45 0 0,0
11.09.2019 20:00:00 10,1 6,3 6,5 14,3 14,4 13,8 4 2 13 7 WSW 49 0 0,0
11.09.2019 19:00:00 13,5 5,8 10,4 16,3 14,3 13,8 6 3 19 10 W 61 47 0,0
11.09.2019 18:00:00 16,1 5,7 17,4 17,9 14,0 13,8 9 5 26 14 W 44 60 0,0
11.09.2019 17:00:00 16,2 5,1 18,5 19,1 13,5 13,8 13 7 24 13 W 35 60 0,0
11.09.2019 16:00:00 16,7 4,4 20,0 19,8 12,9 13,8 10 5 22 12 W 38 60 0,0
11.09.2019 15:00:00 16,1 2,7 19,6 19,7 12,2 13,8 11 6 21 11 SW 25 60 0,0
11.09.2019 14:00:00 15,8 3,5 20,1 19,0 11,4 13,8 8 5 20 11 SSW 24 60 0,0
11.09.2019 13:00:00 15,2 2,9 18,8 17,5 10,6 13,9 11 6 22 12 SW 29 60 0,0
11.09.2019 12:00:00 14,6 2,7 18,7 15,4 10,0 13,9 8 4 17 9 S 24 60 0,0
11.09.2019 11:00:00 14,4 4,7 17,9 12,6 9,6 13,9 5 3 11 6 SSE 41 60 0,0
11.09.2019 10:00:00 12,7 4,1 14,8 9,1 9,5 13,9 3 2 6 3 S 44 60 0,0
11.09.2019 09:00:00 6,6 6,2 8,3 5,6 9,6 13,9 0 0 5 3 N 18 41 0,0
11.09.2019 08:00:00 3,6 3,1 2,7 4,7 9,9 13,9 0 0 4 2 N 11 25 0,0
11.09.2019 07:00:00 2,5 2,0 -0,2 4,6 10,2 13,9 0 0 3 2 N 6 0 0,0
11.09.2019 06:00:00 2,9 2,3 0,1 5,0 10,5 13,9 0 0 4 2 N 5 0 0,0
11.09.2019 05:00:00 2,7 2,1 0,7 5,4 10,9 13,9 2 1 5 3 WNW 7 0 0,0
11.09.2019 04:00:00 2,5 1,9 0,9 5,9 11,3 13,9 4 2 5 3 W 9 0 0,0
11.09.2019 03:00:00 2,5 2,0 0,2 6,3 11,6 14,0 4 2 7 4 W 10 0 0,0
11.09.2019 02:00:00 3,4 2,7 0,9 7,0 12,0 14,0 5 3 8 4 WSW 11 0 0,0
11.09.2019 01:00:00 3,8 3,3 1,3 7,6 12,4 14,0 3 2 9 5 WSW 9 0 0,0
11.09.2019 00:00:00 4,3 3,9 2,1 8,4 12,8 14,0 7 4 10 5 W 12 0 0,0
10.09.2019 23:00:00 4,9 4,1 2,0 9,3 13,2 14,0 6 3 7 4 W 15 0 0,0
10.09.2019 22:00:00 5,7 4,8 2,4 10,5 13,5 14,0 0 0 8 4 N 16 0 0,0
10.09.2019 21:00:00 7,1 5,6 3,6 11,9 13,8 14,0 5 3 10 5 WSW 24 0 0,0
10.09.2019 20:00:00 8,9 6,4 5,0 13,6 13,8 14,1 6 4 9 5 SW 35 0 0,0
10.09.2019 19:00:00 10,8 6,8 9,1 15,3 13,7 14,1 4 2 14 8 SW 43 48 0,0
10.09.2019 18:00:00 11,7 5,5 11,8 16,5 13,5 14,1 5 3 22 12 WSW 43 35 0,0
10.09.2019 17:00:00 13,0 5,1 16,1 17,3 13,2 14,1 10 5 22 12 SW 28 49 0,0
10.09.2019 16:00:00 11,8 5,7 13,6 17,5 12,7 14,1 6 3 21 12 WSW 46 18 0,0
10.09.2019 15:00:00 12,5 3,9 16,5 18,5 12,1 14,1 13 7 22 12 SW 22 56 0,0
10.09.2019 14:00:00 11,9 5,1 16,5 17,6 11,4 14,2 9 5 24 13 WSW 18 60 0,0
10.09.2019 13:00:00 10,9 5,9 15,2 15,9 10,9 14,2 13 7 23 12 WSW 28 44 0,0
10.09.2019 12:00:00 10,6 6,7 12,6 15,1 10,4 14,2 8 4 17 9 WNW 23 48 0,0
10.09.2019 11:00:00 9,4 6,7 10,5 12,5 10,0 14,2 6 3 16 9 WNW 14 32 0,0
10.09.2019 10:00:00 9,2 6,8 9,7 10,5 9,9 14,2 8 4 15 8 W 18 52 0,0
10.09.2019 09:00:00 7,8 6,9 9,0 8,4 9,9 14,2 7 4 12 6 W 7 5 0,0
10.09.2019 08:00:00 6,9 6,1 6,8 7,7 9,9 14,2 8 4 13 7 W 5 1 0,0
10.09.2019 07:00:00 6,8 6,1 6,2 7,5 10,0 14,2 6 4 16 9 W 3,0 0 0,0
10.09.2019 06:00:00 6,7 6,1 5,9 7,6 10,1 14,2 6 4 13 7 W 3,6 0 0,0
10.09.2019 05:00:00 6,7 5,9 5,5 8,1 10,1 14,2 6 4 14 7 W 2,3 0 0,0
10.09.2019 04:00:00 7,4 6,8 7,0 8,3 10,1 14,3 6 3 21 11 WNW 4,0 0 0,0
10.09.2019 03:00:00 7,5 6,8 7,4 8,3 10,1 14,3 7 4 19 11 WNW 3,6 0 0,0
10.09.2019 02:00:00 7,6 7,0 7,3 8,4 10,1 14,3 6 3 16 8 WNW 3,8 0 0,0
10.09.2019 01:00:00 7,6 7,1 7,5 8,6 10,1 14,3 6 3 24 13 W 3,1 0 0,0
10.09.2019 00:00:00 7,8 7,4 7,8 8,6 10,1 14,3 9 5 24 13 WNW 1,1 0 0,0
09.09.2019 23:00:00 7,8 7,3 7,8 8,6 10,0 14,3 8 4 22 12 NW 4,5 0 0,0
09.09.2019 22:00:00 7,7 7,2 7,7 8,5 10,0 14,3 7 4 24 13 NW 3,2 0 0,0
09.09.2019 21:00:00 7,3 6,8 7,3 8,4 9,9 14,3 6 4 29 15 NNW 7 0 0,0
09.09.2019 20:00:00 6,9 6,2 6,7 8,5 9,9 14,3 8 4 32 17 NNW 12 0 0,3
09.09.2019 19:00:00 7,0 6,2 6,9 8,8 9,8 14,3 13 7 43 23 NNW 7 0 0,4
09.09.2019 18:00:00 6,9 6,1 7,2 8,9 9,6 14,3 11 6 37 20 NNW 10 0 1,6
09.09.2019 17:00:00 7,3 6,6 7,5 9,0 9,4 14,3 11 6 33 18 NW 5 0 2,1
09.09.2019 16:00:00 7,6 7,0 7,7 9,1 9,3 14,3 10 5 40 22 NW 6 0 4,2
09.09.2019 15:00:00 7,4 7,0 7,7 8,7 9,4 14,4 10 5 38 20 NNW 4,3 0 4,7
09.09.2019 14:00:00 7,3 6,7 7,4 8,9 9,5 14,5 9 5 32 17 NNW 2,6 0 6,2
09.09.2019 13:00:00 7,5 7,0 7,7 8,9 9,9 14,6 8 4 35 19 NW 2,1 0 6,7
09.09.2019 12:00:00 7,5 6,8 7,5 9,2 10,3 14,7 9 5 34 18 N 2,9 0 4,9

tt = Température de l'air
td = dewpoint
tt 5cm = Température de l'air 5cm
tt -5cm = Température de l'air -5cm
tt -20cm = Température de l'air -20cm
tt -100cm = Température de l'air -100cm
ff = Vitesse du vent
fx = gusts
dd = Direction du vent
vv = visibility
sd = Ensoleillement
rr = Quantités de précipitations

stations d'obs. à proximité